GLO2104 SBFL-SBPA
Flight info
| Callsign | GLO2104 |
|---|---|
| Flight time | 0h 43m |
| Altitude | 30000 |
| Route | UGREV UN857 TIMVI |
| Aircraft | B738/M-SDE2E3FGHIRWXY/LB1 |
Departure
| Time | 2026-04-30 17:53 |
|---|---|
| Airport | Hercílio Luz International Airport (SBFL) |
Arrival
| Time | 2026-04-30 18:37 |
|---|---|
| Airport | Porto Alegre-Salgado Filho International Airport (SBPA) |
| Time | Latitude | Longitude | Altitude | Speed | Heading |
|---|---|---|---|---|---|
| 2026-04-30 17:39 | -27.67344 | -48.54404 | 34 ft | 0 kts | 210° |
| 2026-04-30 17:44 | -27.67332 | -48.54397 | 34 ft | 2 kts | 210° |
| 2026-04-30 17:44 | -27.67316 | -48.54367 | 34 ft | 1 kts | 308° |
| 2026-04-30 17:46 | -27.67319 | -48.54361 | 34 ft | 0 kts | 302° |
| 2026-04-30 17:48 | -27.67273 | -48.54448 | 34 ft | 8 kts | 302° |
| 2026-04-30 17:48 | -27.67086 | -48.54606 | 34 ft | 12 kts | 28° |
| 2026-04-30 17:49 | -27.66941 | -48.54777 | 35 ft | 12 kts | 301° |
| 2026-04-30 17:50 | -27.66654 | -48.55142 | 36 ft | 0 kts | 345° |
| 2026-04-30 17:51 | -27.66578 | -48.55100 | 36 ft | 7 kts | 101° |
| 2026-04-30 17:52 | -27.67167 | -48.54001 | 34 ft | 140 kts | 121° |
| 2026-04-30 17:53 | -27.70479 | -48.48587 | 2442 ft | 202 kts | 158° |
| 2026-04-30 17:54 | -27.76628 | -48.50698 | 4263 ft | 265 kts | 199° |
| 2026-04-30 17:55 | -27.83855 | -48.53543 | 7060 ft | 282 kts | 201° |
| 2026-04-30 17:56 | -27.90452 | -48.57988 | 9946 ft | 283 kts | 230° |
| 2026-04-30 17:57 | -27.94626 | -48.63256 | 11158 ft | 322 kts | 228° |
| 2026-04-30 17:58 | -27.99495 | -48.69097 | 12578 ft | 349 kts | 228° |
| 2026-04-30 17:59 | -28.06261 | -48.77216 | 15190 ft | 359 kts | 228° |
| 2026-04-30 18:00 | -28.13174 | -48.85543 | 17684 ft | 369 kts | 229° |
| 2026-04-30 18:00 | -28.18504 | -48.91975 | 19410 ft | 378 kts | 229° |
| 2026-04-30 18:01 | -28.22113 | -48.96333 | 20527 ft | 385 kts | 229° |
| 2026-04-30 18:02 | -28.27598 | -49.03157 | 22055 ft | 396 kts | 230° |
| 2026-04-30 18:02 | -28.33193 | -49.10154 | 23685 ft | 402 kts | 230° |
| 2026-04-30 18:03 | -28.38882 | -49.17209 | 25219 ft | 408 kts | 231° |
| 2026-04-30 18:04 | -28.44687 | -49.24428 | 26530 ft | 416 kts | 231° |
| 2026-04-30 18:05 | -28.52511 | -49.34178 | 28467 ft | 419 kts | 232° |
| 2026-04-30 18:06 | -28.60257 | -49.43845 | 30085 ft | 412 kts | 232° |
| 2026-04-30 18:08 | -28.73590 | -49.60570 | 30083 ft | 408 kts | 233° |
| 2026-04-30 18:10 | -28.88777 | -49.79678 | 30102 ft | 406 kts | 232° |
| 2026-04-30 18:11 | -29.04098 | -49.94469 | 30145 ft | 413 kts | 225° |
| 2026-04-30 18:13 | -29.15259 | -50.04840 | 30142 ft | 412 kts | 225° |
| 2026-04-30 18:14 | -29.26359 | -50.15234 | 30140 ft | 413 kts | 225° |
| 2026-04-30 18:15 | -29.32836 | -50.21295 | 29767 ft | 385 kts | 225° |
| 2026-04-30 18:15 | -29.38924 | -50.27027 | 28477 ft | 380 kts | 225° |
| 2026-04-30 18:16 | -29.43134 | -50.31023 | 27482 ft | 395 kts | 224° |
| 2026-04-30 18:16 | -29.47341 | -50.34986 | 26501 ft | 387 kts | 224° |
| 2026-04-30 18:17 | -29.49403 | -50.36924 | 26011 ft | 383 kts | 224° |
| 2026-04-30 18:17 | -29.51452 | -50.38854 | 25523 ft | 379 kts | 223° |
| 2026-04-30 18:17 | -29.55465 | -50.42639 | 24566 ft | 371 kts | 223° |
| 2026-04-30 18:18 | -29.57442 | -50.44508 | 24088 ft | 368 kts | 223° |
| 2026-04-30 18:18 | -29.59405 | -50.46365 | 23613 ft | 364 kts | 223° |
| 2026-04-30 18:18 | -29.61349 | -50.48206 | 23137 ft | 361 kts | 223° |
| 2026-04-30 18:18 | -29.63277 | -50.50032 | 22673 ft | 357 kts | 223° |
| 2026-04-30 18:19 | -29.65171 | -50.51828 | 22202 ft | 354 kts | 223° |
| 2026-04-30 18:19 | -29.67058 | -50.53616 | 21743 ft | 351 kts | 223° |
| 2026-04-30 18:19 | -29.68945 | -50.55406 | 21328 ft | 346 kts | 223° |
| 2026-04-30 18:19 | -29.70779 | -50.57145 | 20920 ft | 342 kts | 223° |
| 2026-04-30 18:20 | -29.72610 | -50.58885 | 20456 ft | 339 kts | 223° |
| 2026-04-30 18:20 | -29.74397 | -50.60584 | 20002 ft | 336 kts | 223° |
| 2026-04-30 18:20 | -29.76206 | -50.62305 | 19539 ft | 334 kts | 222° |
| 2026-04-30 18:20 | -29.77971 | -50.63984 | 19081 ft | 332 kts | 223° |
| 2026-04-30 18:21 | -29.79754 | -50.65681 | 18610 ft | 329 kts | 223° |
| 2026-04-30 18:21 | -29.81506 | -50.67350 | 18168 ft | 327 kts | 223° |
| 2026-04-30 18:21 | -29.83255 | -50.69017 | 17699 ft | 325 kts | 223° |
| 2026-04-30 18:21 | -29.84996 | -50.70678 | 17236 ft | 323 kts | 223° |
| 2026-04-30 18:22 | -29.86718 | -50.72319 | 16805 ft | 321 kts | 222° |
| 2026-04-30 18:22 | -29.90135 | -50.75579 | 15891 ft | 319 kts | 222° |
| 2026-04-30 18:22 | -29.91857 | -50.77214 | 15411 ft | 317 kts | 221° |
| 2026-04-30 18:23 | -29.93574 | -50.78791 | 14994 ft | 315 kts | 220° |
| 2026-04-30 18:23 | -29.95294 | -50.80335 | 14566 ft | 314 kts | 220° |
| 2026-04-30 18:23 | -29.97014 | -50.81874 | 14106 ft | 313 kts | 220° |
| 2026-04-30 18:23 | -29.98728 | -50.83413 | 13657 ft | 312 kts | 220° |
| 2026-04-30 18:24 | -30.02118 | -50.86475 | 12809 ft | 308 kts | 220° |
| 2026-04-30 18:24 | -30.03801 | -50.87998 | 12389 ft | 306 kts | 220° |
| 2026-04-30 18:24 | -30.05473 | -50.89514 | 11984 ft | 305 kts | 220° |
| 2026-04-30 18:25 | -30.07118 | -50.91045 | 11568 ft | 303 kts | 224° |
| 2026-04-30 18:25 | -30.09209 | -50.95038 | 10821 ft | 292 kts | 261° |
| 2026-04-30 18:25 | -30.09335 | -50.97351 | 10012 ft | 295 kts | 272° |
| 2026-04-30 18:26 | -30.09203 | -51.01866 | 9840 ft | 267 kts | 272° |
| 2026-04-30 18:26 | -30.09155 | -51.03979 | 9579 ft | 263 kts | 273° |
| 2026-04-30 18:26 | -30.09115 | -51.06072 | 9241 ft | 262 kts | 272° |
| 2026-04-30 18:27 | -30.09037 | -51.10252 | 8561 ft | 260 kts | 272° |
| 2026-04-30 18:27 | -30.08998 | -51.12342 | 8229 ft | 259 kts | 272° |
| 2026-04-30 18:28 | -30.08919 | -51.16458 | 7566 ft | 257 kts | 272° |
| 2026-04-30 18:28 | -30.08879 | -51.18523 | 7224 ft | 256 kts | 272° |
| 2026-04-30 18:28 | -30.08795 | -51.22623 | 6525 ft | 256 kts | 272° |
| 2026-04-30 18:29 | -30.08752 | -51.24679 | 6200 ft | 255 kts | 272° |
| 2026-04-30 18:29 | -30.08622 | -51.30764 | 5245 ft | 251 kts | 272° |
| 2026-04-30 18:30 | -30.08552 | -51.34045 | 4795 ft | 240 kts | 272° |
| 2026-04-30 18:30 | -30.08142 | -51.38161 | 4589 ft | 204 kts | 299° |
| 2026-04-30 18:31 | -30.07233 | -51.39292 | 4511 ft | 187 kts | 330° |
| 2026-04-30 18:31 | -30.04822 | -51.40037 | 4095 ft | 179 kts | 9° |
| 2026-04-30 18:32 | -30.02506 | -51.39038 | 3699 ft | 177 kts | 22° |
| 2026-04-30 18:32 | -30.01350 | -51.38519 | 3519 ft | 175 kts | 21° |
| 2026-04-30 18:32 | -29.99279 | -51.37146 | 3221 ft | 174 kts | 58° |
| 2026-04-30 18:33 | -29.98979 | -51.35802 | 2984 ft | 177 kts | 91° |
| 2026-04-30 18:33 | -29.99147 | -51.33002 | 2473 ft | 174 kts | 89° |
| 2026-04-30 18:33 | -29.99157 | -51.31610 | 2247 ft | 172 kts | 90° |
| 2026-04-30 18:34 | -29.99187 | -51.30233 | 2017 ft | 171 kts | 90° |
| 2026-04-30 18:34 | -29.99245 | -51.27571 | 1559 ft | 161 kts | 90° |
| 2026-04-30 18:34 | -29.99272 | -51.26322 | 1396 ft | 156 kts | 90° |
| 2026-04-30 18:35 | -29.99298 | -51.25092 | 1148 ft | 150 kts | 90° |
| 2026-04-30 18:35 | -29.99322 | -51.23899 | 975 ft | 151 kts | 90° |
| 2026-04-30 18:35 | -29.99348 | -51.22694 | 779 ft | 151 kts | 90° |
| 2026-04-30 18:36 | -29.99403 | -51.20287 | 376 ft | 147 kts | 90° |
| 2026-04-30 18:36 | -29.99422 | -51.19103 | 171 ft | 149 kts | 89° |
| 2026-04-30 18:36 | -29.99463 | -51.16972 | 22 ft | 90 kts | 92° |
| 2026-04-30 18:37 | -29.99473 | -51.16477 | 23 ft | 40 kts | 91° |
| 2026-04-30 18:37 | -29.99470 | -51.16254 | 23 ft | 16 kts | 60° |
| 2026-04-30 18:37 | -29.99398 | -51.16231 | 23 ft | 0 kts | 1° |
| 2026-04-30 18:38 | -29.99394 | -51.16231 | 23 ft | 3 kts | 1° |
| 2026-04-30 18:38 | -29.99321 | -51.16233 | 23 ft | 14 kts | 345° |
| 2026-04-30 18:38 | -29.99285 | -51.16340 | 23 ft | 15 kts | 272° |
| 2026-04-30 18:38 | -29.99284 | -51.16461 | 22 ft | 13 kts | 270° |
| 2026-04-30 18:39 | -29.99282 | -51.16570 | 22 ft | 15 kts | 271° |
| 2026-04-30 18:39 | -29.99279 | -51.16722 | 22 ft | 22 kts | 270° |
| 2026-04-30 18:39 | -29.99275 | -51.16924 | 22 ft | 27 kts | 271° |
| 2026-04-30 18:39 | -29.99270 | -51.17146 | 22 ft | 27 kts | 271° |
| 2026-04-30 18:40 | -29.99266 | -51.17331 | 22 ft | 15 kts | 271° |
| 2026-04-30 18:40 | -29.99220 | -51.17390 | 22 ft | 8 kts | 350° |
| 2026-04-30 18:40 | -29.99181 | -51.17433 | 22 ft | 10 kts | 283° |
| 2026-04-30 18:40 | -29.99177 | -51.17507 | 22 ft | 6 kts | 269° |
| 2026-04-30 18:41 | -29.99174 | -51.17523 | 22 ft | 0 kts | 315° |
| 2026-04-30 18:41 | -29.99169 | -51.17527 | 22 ft | 0 kts | 329° |
| 2026-04-30 18:41 | -29.99162 | -51.17530 | 22 ft | 3 kts | 336° |
| 2026-04-30 18:41 | -29.99134 | -51.17533 | 22 ft | 2 kts | 357° |
| 2026-04-30 18:42 | -29.99129 | -51.17533 | 22 ft | 0 kts | 360° |
| 2026-04-30 18:42 | -29.99127 | -51.17533 | 22 ft | 0 kts | 0° |